sensor_id;sensor_type;location;lat;lon;timestamp;temperature;humidity
25050;DHT22;13046;49.814;9.918;2022-09-09T05:39:09;20.00;99.90
25050;DHT22;13046;49.814;9.918;2022-09-09T05:41:37;14.80;99.90
25050;DHT22;13046;49.814;9.918;2022-09-09T05:44:03;14.80;99.90
25050;DHT22;13046;49.814;9.918;2022-09-09T05:46:33;14.80;99.90
25050;DHT22;13046;49.814;9.918;2022-09-09T05:48:59;14.80;99.90
25050;DHT22;13046;49.814;9.918;2022-09-09T05:51:29;14.90;99.90
25050;DHT22;13046;49.814;9.918;2022-09-09T05:54:02;15.00;99.90
25050;DHT22;13046;49.814;9.918;2022-09-09T05:56:32;15.10;99.90
25050;DHT22;13046;49.814;9.918;2022-09-09T05:58:58;15.10;99.90
25050;DHT22;13046;49.814;9.918;2022-09-09T06:01:31;15.10;99.90
25050;DHT22;13046;49.814;9.918;2022-09-09T06:03:57;15.10;99.90
25050;DHT22;13046;49.814;9.918;2022-09-09T06:06:25;15.20;99.90
25050;DHT22;13046;49.814;9.918;2022-09-09T06:08:55;15.20;99.90
25050;DHT22;13046;49.814;9.918;2022-09-09T06:11:28;15.30;99.90
25050;DHT22;13046;49.814;9.918;2022-09-09T06:13:57;15.30;99.90
25050;DHT22;13046;49.814;9.918;2022-09-09T06:16:25;15.40;99.90
25050;DHT22;13046;49.814;9.918;2022-09-09T06:18:53;15.40;99.90
25050;DHT22;13046;49.814;9.918;2022-09-09T06:21:20;15.40;99.90
25050;DHT22;13046;49.814;9.918;2022-09-09T06:23:48;15.40;99.90
25050;DHT22;13046;49.814;9.918;2022-09-09T06:26:19;15.50;99.90
25050;DHT22;13046;49.814;9.918;2022-09-09T06:28:48;15.60;99.90
25050;DHT22;13046;49.814;9.918;2022-09-09T06:31:16;15.80;99.90
25050;DHT22;13046;49.814;9.918;2022-09-09T06:33:50;15.80;99.90
25050;DHT22;13046;49.814;9.918;2022-09-09T06:36:38;15.90;99.90
25050;DHT22;13046;49.814;9.918;2022-09-09T06:39:05;16.00;99.90
25050;DHT22;13046;49.814;9.918;2022-09-09T06:41:33;16.10;99.90
25050;DHT22;13046;49.814;9.918;2022-09-09T06:44:00;16.20;99.90
25050;DHT22;13046;49.814;9.918;2022-09-09T06:51:36;16.30;99.90
25050;DHT22;13046;49.814;9.918;2022-09-09T06:54:04;16.60;99.90
25050;DHT22;13046;49.814;9.918;2022-09-09T06:56:37;16.60;99.90
25050;DHT22;13046;49.814;9.918;2022-09-09T06:59:10;16.70;99.90
25050;DHT22;13046;49.814;9.918;2022-09-09T07:01:39;16.70;99.90
25050;DHT22;13046;49.814;9.918;2022-09-09T07:04:15;16.80;99.90
25050;DHT22;13046;49.814;9.918;2022-09-09T07:06:45;16.80;99.90
25050;DHT22;13046;49.814;9.918;2022-09-09T07:09:15;16.80;99.90
25050;DHT22;13046;49.814;9.918;2022-09-09T07:11:46;17.00;99.90
25050;DHT22;13046;49.814;9.918;2022-09-09T07:38:59;17.20;99.90
25050;DHT22;13046;49.814;9.918;2022-09-09T07:41:34;18.60;99.90
25050;DHT22;13046;49.814;9.918;2022-09-09T07:48:58;18.70;99.90
25050;DHT22;13046;49.814;9.918;2022-09-09T07:54:03;18.80;99.90
25050;DHT22;13046;49.814;9.918;2022-09-09T07:56:31;19.50;99.90
25050;DHT22;13046;49.814;9.918;2022-09-09T07:58:58;19.60;99.90
25050;DHT22;13046;49.814;9.918;2022-09-09T08:01:32;19.60;99.90
25050;DHT22;13046;49.814;9.918;2022-09-09T08:04:01;19.50;99.90
25050;DHT22;13046;49.814;9.918;2022-09-09T08:06:35;19.60;99.90
25050;DHT22;13046;49.814;9.918;2022-09-09T08:09:01;19.90;99.90
25050;DHT22;13046;49.814;9.918;2022-09-09T08:11:28;20.00;99.90
25050;DHT22;13046;49.814;9.918;2022-09-09T08:13:55;19.80;99.90
25050;DHT22;13046;49.814;9.918;2022-09-09T08:16:24;19.80;99.90
25050;DHT22;13046;49.814;9.918;2022-09-09T08:18:51;19.60;99.90
25050;DHT22;13046;49.814;9.918;2022-09-09T08:21:23;19.70;99.90
25050;DHT22;13046;49.814;9.918;2022-09-09T08:23:50;20.20;99.90
25050;DHT22;13046;49.814;9.918;2022-09-09T08:26:22;20.50;99.90
25050;DHT22;13046;49.814;9.918;2022-09-09T08:28:53;20.70;99.90
25050;DHT22;13046;49.814;9.918;2022-09-09T08:31:27;20.60;99.90
25050;DHT22;13046;49.814;9.918;2022-09-09T08:33:54;20.30;99.90
25050;DHT22;13046;49.814;9.918;2022-09-09T08:36:22;19.80;99.90
25050;DHT22;13046;49.814;9.918;2022-09-09T08:38:50;19.70;99.90
25050;DHT22;13046;49.814;9.918;2022-09-09T08:43:45;20.30;99.90
25050;DHT22;13046;49.814;9.918;2022-09-09T08:46:21;20.70;99.90
25050;DHT22;13046;49.814;9.918;2022-09-09T08:51:19;21.40;99.90
25050;DHT22;13046;49.814;9.918;2022-09-09T08:53:48;21.20;99.90
25050;DHT22;13046;49.814;9.918;2022-09-09T08:56:20;21.40;99.90
25050;DHT22;13046;49.814;9.918;2022-09-09T08:58:55;21.40;99.90
25050;DHT22;13046;49.814;9.918;2022-09-09T09:12:41;22.00;99.90
25050;DHT22;13046;49.814;9.918;2022-09-09T09:17:47;22.10;99.90
25050;DHT22;13046;49.814;9.918;2022-09-09T09:20:16;22.30;99.90
25050;DHT22;13046;49.814;9.918;2022-09-09T09:22:48;22.40;99.90
25050;DHT22;13046;49.814;9.918;2022-09-09T09:25:22;22.50;99.90
25050;DHT22;13046;49.814;9.918;2022-09-09T09:27:55;22.50;99.90
25050;DHT22;13046;49.814;9.918;2022-09-09T09:30:26;22.50;99.90
25050;DHT22;13046;49.814;9.918;2022-09-09T09:32:56;22.60;99.90
25050;DHT22;13046;49.814;9.918;2022-09-09T09:35:24;22.70;99.90
25050;DHT22;13046;49.814;9.918;2022-09-09T09:37:49;22.90;99.90
25050;DHT22;13046;49.814;9.918;2022-09-09T09:40:18;23.30;99.90
25050;DHT22;13046;49.814;9.918;2022-09-09T09:42:59;23.50;99.90
25050;DHT22;13046;49.814;9.918;2022-09-09T09:45:33;23.90;99.90
25050;DHT22;13046;49.814;9.918;2022-09-09T09:48:04;23.90;99.90
25050;DHT22;13046;49.814;9.918;2022-09-09T09:50:32;24.00;99.90
25050;DHT22;13046;49.814;9.918;2022-09-09T09:53:02;24.00;99.90
25050;DHT22;13046;49.814;9.918;2022-09-09T09:55:33;24.30;99.90
25050;DHT22;13046;49.814;9.918;2022-09-09T09:58:02;24.60;99.90
25050;DHT22;13046;49.814;9.918;2022-09-09T10:00:28;24.30;99.90
25050;DHT22;13046;49.814;9.918;2022-09-09T10:03:02;24.50;99.90
25050;DHT22;13046;49.814;9.918;2022-09-09T10:05:45;25.10;99.90
25050;DHT22;13046;49.814;9.918;2022-09-09T10:08:13;25.20;99.90
25050;DHT22;13046;49.814;9.918;2022-09-09T10:11:06;25.20;99.90
25050;DHT22;13046;49.814;9.918;2022-09-09T10:13:56;24.90;99.90
25050;DHT22;13046;49.814;9.918;2022-09-09T10:16:36;24.60;99.90
25050;DHT22;13046;49.814;9.918;2022-09-09T10:19:06;24.00;99.90
25050;DHT22;13046;49.814;9.918;2022-09-09T10:26:52;23.70;99.90
25050;DHT22;13046;49.814;9.918;2022-09-09T10:34:56;24.10;99.90
25050;DHT22;13046;49.814;9.918;2022-09-09T10:37:45;23.20;99.90
25050;DHT22;13046;49.814;9.918;2022-09-09T10:40:26;22.20;99.90
25050;DHT22;13046;49.814;9.918;2022-09-09T11:18:31;21.30;99.90
25050;DHT22;13046;49.814;9.918;2022-09-09T11:42:16;22.70;99.90
25050;DHT22;13046;49.814;9.918;2022-09-09T11:44:43;22.90;99.90
25050;DHT22;13046;49.814;9.918;2022-09-09T11:49:48;23.40;99.90
25050;DHT22;13046;49.814;9.918;2022-09-09T11:52:40;23.40;99.90
25050;DHT22;13046;49.814;9.918;2022-09-09T11:55:27;22.60;99.90
25050;DHT22;13046;49.814;9.918;2022-09-09T11:58:02;23.20;99.90
25050;DHT22;13046;49.814;9.918;2022-09-09T12:00:32;23.50;99.90
25050;DHT22;13046;49.814;9.918;2022-09-09T12:02:58;23.50;99.90
25050;DHT22;13046;49.814;9.918;2022-09-09T12:05:44;22.30;99.90
25050;DHT22;13046;49.814;9.918;2022-09-09T12:08:15;21.70;99.90
25050;DHT22;13046;49.814;9.918;2022-09-09T12:10:54;21.50;99.90
25050;DHT22;13046;49.814;9.918;2022-09-09T12:18:33;21.50;99.90
25050;DHT22;13046;49.814;9.918;2022-09-09T12:23:37;22.70;99.90
25050;DHT22;13046;49.814;9.918;2022-09-09T12:26:40;22.80;99.90
25050;DHT22;13046;49.814;9.918;2022-09-09T12:29:32;22.60;99.90
25050;DHT22;13046;49.814;9.918;2022-09-09T12:34:36;22.10;99.90
25050;DHT22;13046;49.814;9.918;2022-09-09T12:37:17;22.20;99.90
25050;DHT22;13046;49.814;9.918;2022-09-09T12:47:41;21.90;99.90
25050;DHT22;13046;49.814;9.918;2022-09-09T12:50:21;22.20;99.90
25050;DHT22;13046;49.814;9.918;2022-09-09T12:52:48;23.00;99.90
25050;DHT22;13046;49.814;9.918;2022-09-09T12:55:21;24.10;99.90
25050;DHT22;13046;49.814;9.918;2022-09-09T12:57:51;24.50;99.90
25050;DHT22;13046;49.814;9.918;2022-09-09T13:00:20;24.60;99.90
25050;DHT22;13046;49.814;9.918;2022-09-09T13:02:53;24.70;99.90
25050;DHT22;13046;49.814;9.918;2022-09-09T13:07:47;25.60;99.90
25050;DHT22;13046;49.814;9.918;2022-09-09T13:10:14;25.60;99.90
25050;DHT22;13046;49.814;9.918;2022-09-09T13:12:41;25.70;99.90
25050;DHT22;13046;49.814;9.918;2022-09-09T13:15:21;26.00;99.90
25050;DHT22;13046;49.814;9.918;2022-09-09T13:17:52;25.90;99.90
25050;DHT22;13046;49.814;9.918;2022-09-09T13:20:19;25.80;99.90
25050;DHT22;13046;49.814;9.918;2022-09-09T13:22:48;25.50;99.90
25050;DHT22;13046;49.814;9.918;2022-09-09T13:25:18;24.50;99.90
25050;DHT22;13046;49.814;9.918;2022-09-09T13:28:02;23.70;99.90
25050;DHT22;13046;49.814;9.918;2022-09-09T13:30:32;23.40;99.90
25050;DHT22;13046;49.814;9.918;2022-09-09T13:35:48;22.90;99.90
25050;DHT22;13046;49.814;9.918;2022-09-09T13:38:16;23.30;99.90
25050;DHT22;13046;49.814;9.918;2022-09-09T13:41:01;24.40;99.90
25050;DHT22;13046;49.814;9.918;2022-09-09T13:43:43;25.30;99.90
25050;DHT22;13046;49.814;9.918;2022-09-09T13:46:40;25.90;99.90
25050;DHT22;13046;49.814;9.918;2022-09-09T13:51:46;26.30;99.90
25050;DHT22;13046;49.814;9.918;2022-09-09T13:54:15;26.20;99.90
25050;DHT22;13046;49.814;9.918;2022-09-09T13:56:42;25.40;99.90
25050;DHT22;13046;49.814;9.918;2022-09-09T13:59:13;24.70;99.90
25050;DHT22;13046;49.814;9.918;2022-09-09T14:01:40;24.30;99.90
25050;DHT22;13046;49.814;9.918;2022-09-09T14:04:06;24.00;99.90
25050;DHT22;13046;49.814;9.918;2022-09-09T14:06:32;23.60;99.90
25050;DHT22;13046;49.814;9.918;2022-09-09T14:08:58;23.50;99.90
25050;DHT22;13046;49.814;9.918;2022-09-09T14:11:24;23.50;99.90
25050;DHT22;13046;49.814;9.918;2022-09-09T14:13:50;23.60;99.90
25050;DHT22;13046;49.814;9.918;2022-09-09T14:16:17;23.30;99.90
25050;DHT22;13046;49.814;9.918;2022-09-09T14:18:43;22.90;99.90
25050;DHT22;13046;49.814;9.918;2022-09-09T14:21:09;22.70;99.90
25050;DHT22;13046;49.814;9.918;2022-09-09T14:23:35;22.80;99.90
25050;DHT22;13046;49.814;9.918;2022-09-09T14:26:01;22.90;99.90
25050;DHT22;13046;49.814;9.918;2022-09-09T14:28:27;23.20;99.90
25050;DHT22;13046;49.814;9.918;2022-09-09T14:30:53;23.30;99.90
25050;DHT22;13046;49.814;9.918;2022-09-09T14:33:19;23.30;99.90
25050;DHT22;13046;49.814;9.918;2022-09-09T14:35:45;23.20;99.90
25050;DHT22;13046;49.814;9.918;2022-09-09T14:38:10;22.90;99.90
25050;DHT22;13046;49.814;9.918;2022-09-09T14:40:37;22.80;99.90
25050;DHT22;13046;49.814;9.918;2022-09-09T14:43:04;22.60;99.90
25050;DHT22;13046;49.814;9.918;2022-09-09T14:45:30;22.40;99.90
25050;DHT22;13046;49.814;9.918;2022-09-09T14:47:55;22.20;99.90
25050;DHT22;13046;49.814;9.918;2022-09-09T14:50:22;22.00;99.90
25050;DHT22;13046;49.814;9.918;2022-09-09T14:55:15;21.80;99.90
25050;DHT22;13046;49.814;9.918;2022-09-09T14:57:42;20.10;99.90
25050;DHT22;13046;49.814;9.918;2022-09-09T15:00:09;19.50;99.90
25050;DHT22;13046;49.814;9.918;2022-09-09T15:07:29;19.10;99.90
25050;DHT22;13046;49.814;9.918;2022-09-09T15:12:24;18.60;99.90
25050;DHT22;13046;49.814;9.918;2022-09-09T15:14:49;18.30;99.90
25050;DHT22;13046;49.814;9.918;2022-09-09T15:54:05;18.20;99.90
25050;DHT22;13046;49.814;9.918;2022-09-09T16:13:45;20.30;99.90
25050;DHT22;13046;49.814;9.918;2022-09-09T16:26:21;20.50;99.90
